Time;durP1;ratioP1;P1;durP2;ratioP2;P2;SDS_P1;SDS_P2;PMS_P1;PMS_P2;Temp;Humidity;BMP_temperature;BMP_pressure;BME280_temperature;BME280_humidity;BME280_pressure;Samples;Min_cycle;Max_cycle;Signal;HPM_P1;HPM_P2
2023/01/09 00:02:22;;;;;;;;;0.33;0.33;;;;;21.78;45.28;99545.03;5076268;28;45474;-72
2023/01/09 00:04:47;;;;;;;;;0.00;0.00;;;;;21.78;45.76;99547.69;5075917;28;45365;-72
2023/01/09 00:07:13;;;;;;;;;0.00;0.00;;;;;21.78;45.42;99550.31;5075674;27;45360;-72
2023/01/09 00:09:38;;;;;;;;;0.00;0.00;;;;;21.78;45.74;99554.81;5076367;28;45345;-72
2023/01/09 00:12:04;;;;;;;;;0.00;0.00;;;;;21.77;45.28;99538.13;5076005;27;46296;-72
2023/01/09 00:14:29;;;;;;;;;0.00;0.00;;;;;21.75;45.28;99540.19;5076159;28;45645;-72
2023/01/09 00:16:55;;;;;;;;;0.00;0.00;;;;;21.76;45.29;99525.91;5076287;27;45430;-72
2023/01/09 00:19:20;;;;;;;;;1.00;0.00;;;;;21.67;45.32;99508.63;5075815;28;45372;-73
2023/01/09 00:21:45;;;;;;;;;0.00;0.00;;;;;21.71;45.55;99510.66;5076049;28;45379;-72
2023/01/09 00:24:11;;;;;;;;;0.00;0.00;;;;;21.77;45.18;99529.38;5076017;28;45339;-72
2023/01/09 00:26:36;;;;;;;;;0.00;0.00;;;;;21.76;45.61;99531.19;5076228;28;45362;-72
2023/01/09 00:29:02;;;;;;;;;0.00;0.00;;;;;21.68;45.57;99516.38;5076247;28;45473;-72
2023/01/09 00:31:27;;;;;;;;;1.00;0.00;;;;;21.75;45.74;99521.66;5076058;28;46190;-72
2023/01/09 00:34:02;;;;;;;;;2.00;0.33;;;;;21.70;45.37;99514.31;5075436;28;45386;-72
2023/01/09 00:36:28;;;;;;;;;0.00;0.00;;;;;21.74;45.16;99527.94;5076134;28;45885;-72
2023/01/09 00:38:53;;;;;;;;;0.00;0.00;;;;;21.73;45.50;99534.25;5075852;28;45536;-72
2023/01/09 00:41:27;;;;;;;;;0.00;0.00;;;;;21.73;45.17;99542.19;5075440;28;46999;-72
2023/01/09 00:43:57;;;;;;;;;0.00;0.00;;;;;21.63;45.67;99529.41;5075997;28;45523;-72
2023/01/09 00:46:29;;;;;;;;;0.00;0.00;;;;;21.64;45.14;99533.69;5076142;28;45399;-72
2023/01/09 00:48:54;;;;;;;;;1.00;0.00;;;;;21.69;45.54;99538.34;5075351;27;45253;-72
2023/01/09 00:51:20;;;;;;;;;0.00;0.00;;;;;21.65;45.50;99530.00;5075485;28;47061;-72
2023/01/09 00:53:48;;;;;;;;;0.00;0.00;;;;;21.68;45.65;99536.72;5075650;27;45274;-72
2023/01/09 00:56:16;;;;;;;;;0.00;0.00;;;;;21.73;45.53;99545.66;5075677;27;45497;-72
2023/01/09 00:58:42;;;;;;;;;0.00;0.00;;;;;21.72;45.23;99533.47;5075643;28;45452;-72
2023/01/09 01:01:07;;;;;;;;;0.00;0.00;;;;;21.72;45.10;99546.69;5075136;28;46237;-72
2023/01/09 01:03:32;;;;;;;;;0.00;0.00;;;;;21.71;45.55;99539.78;5075159;28;45509;-72
2023/01/09 01:08:42;;;;;;;;;0.00;0.00;;;;;21.71;45.10;99529.19;5075696;28;45360;-72
2023/01/09 01:11:09;;;;;;;;;0.67;0.00;;;;;21.73;45.45;99536.91;5075016;28;46274;-72
2023/01/09 01:13:35;;;;;;;;;1.00;0.00;;;;;21.73;44.89;99528.97;5075542;28;45439;-72
2023/01/09 01:16:04;;;;;;;;;1.67;0.00;;;;;21.72;45.05;99533.47;5075474;28;45470;-72
2023/01/09 01:18:30;;;;;;;;;0.00;0.00;;;;;21.73;44.93;99539.56;5077427;28;45315;-72
2023/01/09 01:20:55;;;;;;;;;0.00;0.00;;;;;21.72;45.08;99540.59;5078762;27;46113;-72
2023/01/09 01:23:20;;;;;;;;;0.00;0.00;;;;;21.73;45.09;99553.59;5078735;28;45428;-72
2023/01/09 01:25:46;;;;;;;;;0.00;0.00;;;;;21.71;45.49;99537.13;5079033;28;45305;-72
2023/01/09 01:28:11;;;;;;;;;0.00;0.00;;;;;21.73;45.21;99537.72;5078859;28;45385;-72
2023/01/09 01:30:38;;;;;;;;;0.00;0.00;;;;;21.74;45.44;99557.06;5078562;28;47644;-72
2023/01/09 01:33:04;;;;;;;;;0.67;0.00;;;;;21.74;45.08;99562.38;5078346;28;45333;-72
2023/01/09 01:35:29;;;;;;;;;0.00;0.00;;;;;21.74;45.39;99560.53;5078621;27;45402;-72
2023/01/09 01:37:55;;;;;;;;;0.00;0.00;;;;;21.75;45.34;99577.25;5078608;28;45410;-72
2023/01/09 01:40:20;;;;;;;;;1.00;0.00;;;;;21.74;45.29;99578.25;5078525;28;45904;-72
2023/01/09 01:42:50;;;;;;;;;0.00;0.00;;;;;21.74;44.91;99591.47;5078551;27;45342;-72
2023/01/09 01:45:25;;;;;;;;;0.67;0.00;;;;;21.76;45.31;99599.22;5078645;28;45441;-72
2023/01/09 01:47:56;;;;;;;;;0.00;0.00;;;;;21.77;45.13;99598.19;5078105;28;45229;-72
2023/01/09 01:50:26;;;;;;;;;0.00;0.00;;;;;21.76;44.98;99592.09;5077952;27;45331;-73
2023/01/09 01:53:13;;;;;;;;;0.67;0.00;;;;;21.76;44.97;99602.66;5078436;28;45387;-72
2023/01/09 01:55:51;;;;;;;;;0.00;0.00;;;;;21.75;44.69;99619.59;5078176;28;45317;-72
2023/01/09 01:58:16;;;;;;;;;0.00;0.00;;;;;21.74;45.08;99615.31;5078412;28;45376;-72
2023/01/09 02:00:45;;;;;;;;;1.00;0.00;;;;;21.70;45.34;99606.97;5077740;28;45809;-72
2023/01/09 02:03:16;;;;;;;;;0.00;0.00;;;;;21.74;44.83;99594.94;5078169;28;45553;-72
2023/01/09 02:05:43;;;;;;;;;0.00;0.00;;;;;21.65;44.96;99574.22;5078268;28;45421;-72
2023/01/09 02:08:09;;;;;;;;;0.00;0.00;;;;;21.72;45.29;99604.13;5078479;27;45396;-72
2023/01/09 02:10:36;;;;;;;;;1.33;0.00;;;;;21.73;44.99;99611.03;5077947;28;45271;-72
2023/01/09 02:13:03;;;;;;;;;0.00;0.00;;;;;21.73;45.39;99603.91;5077923;28;45407;-72
2023/01/09 02:15:42;;;;;;;;;0.00;0.00;;;;;21.73;45.06;99611.03;5077769;28;45458;-72
2023/01/09 02:18:29;;;;;;;;;0.00;0.00;;;;;21.72;44.85;99618.19;5078093;28;45526;-71
2023/01/09 02:21:03;;;;;;;;;0.00;0.00;;;;;21.68;45.07;99608.19;5077083;27;45373;-72
2023/01/09 02:23:59;;;;;;;;;0.00;0.00;;;;;21.71;44.99;99608.59;5077900;27;45360;-72
2023/01/09 02:26:59;;;;;;;;;0.00;0.00;;;;;21.71;45.26;99616.53;5078011;28;45362;-72
2023/01/09 02:29:40;;;;;;;;;0.00;0.00;;;;;21.70;45.54;99617.56;5076900;27;45338;-72
2023/01/09 02:32:26;;;;;;;;;0.00;0.00;;;;;21.70;45.21;99616.75;5077788;28;47093;-72
2023/01/09 02:35:00;;;;;;;;;0.00;0.00;;;;;21.70;44.93;99622.84;5077702;27;45396;-72
2023/01/09 02:37:45;;;;;;;;;0.00;0.00;;;;;21.69;45.25;99647.72;5077682;27;45295;-72
2023/01/09 02:40:27;;;;;;;;;0.00;0.00;;;;;21.69;44.75;99646.88;5077830;28;45238;-72
2023/01/09 02:42:56;;;;;;;;;0.00;0.00;;;;;21.68;44.89;99651.38;5077585;28;47034;-72
2023/01/09 02:45:21;;;;;;;;;0.00;0.00;;;;;21.68;45.18;99658.47;5077170;28;45338;-72
2023/01/09 02:47:47;;;;;;;;;0.00;0.00;;;;;21.65;44.74;99654.41;5077543;28;45346;-72
2023/01/09 02:50:17;;;;;;;;;0.00;0.00;;;;;21.64;44.77;99655.44;5077332;27;45550;-72
2023/01/09 02:53:08;;;;;;;;;0.00;0.00;;;;;21.67;45.18;99652.41;5077520;28;45658;-72
2023/01/09 02:56:11;;;;;;;;;0.00;0.00;;;;;21.66;45.26;99656.06;5077203;28;45297;-72
2023/01/09 02:58:57;;;;;;;;;0.00;0.00;;;;;21.66;45.29;99661.34;5077126;28;45387;-73
2023/01/09 03:01:28;;;;;;;;;0.00;0.00;;;;;21.66;44.78;99653.41;5077000;28;45381;-72
2023/01/09 03:04:04;;;;;;;;;0.00;0.00;;;;;21.67;44.93;99655.03;5076879;27;46119;-70
2023/01/09 03:06:41;;;;;;;;;0.00;0.00;;;;;21.67;44.90;99651.59;5077085;28;45441;-72
2023/01/09 03:09:21;;;;;;;;;0.00;0.00;;;;;21.67;45.24;99639.16;5076958;27;45234;-72
2023/01/09 03:11:51;;;;;;;;;0.00;0.00;;;;;21.68;44.77;99642.59;5077074;28;45388;-72
2023/01/09 03:14:20;;;;;;;;;0.00;0.00;;;;;21.61;45.41;99642.63;5076469;28;46119;-71
2023/01/09 03:16:51;;;;;;;;;0.00;0.00;;;;;21.67;45.30;99652.41;5076985;28;45428;-72
2023/01/09 03:19:21;;;;;;;;;0.00;0.00;;;;;21.66;45.04;99647.28;5076941;28;45289;-72
2023/01/09 03:21:48;;;;;;;;;0.00;0.00;;;;;21.67;44.73;99647.09;5076915;27;45356;-72
2023/01/09 03:24:14;;;;;;;;;0.00;0.00;;;;;21.67;44.69;99647.09;5076863;28;45335;-72
2023/01/09 03:26:39;;;;;;;;;0.00;0.00;;;;;21.69;44.73;99653.00;5076731;28;45238;-72
2023/01/09 03:29:05;;;;;;;;;0.00;0.00;;;;;21.69;45.03;99655.66;5076465;28;45277;-72
2023/01/09 03:31:30;;;;;;;;;0.00;0.00;;;;;21.70;44.80;99659.13;5077068;27;45388;-72
2023/01/09 03:33:55;;;;;;;;;0.00;0.00;;;;;21.62;44.72;99647.69;5076720;28;45341;-72
2023/01/09 03:36:22;;;;;;;;;0.67;0.00;;;;;21.70;45.16;99654.63;5076559;28;46056;-73
2023/01/09 03:38:48;;;;;;;;;0.33;0.00;;;;;21.70;44.70;99665.19;5076719;28;45360;-72
2023/01/09 03:41:14;;;;;;;;;0.00;0.00;;;;;21.68;44.79;99661.94;5075398;28;45551;-72
2023/01/09 03:43:39;;;;;;;;;0.33;0.00;;;;;21.68;45.01;99653.19;5076501;28;45478;-72
2023/01/09 03:46:05;;;;;;;;;1.00;0.00;;;;;21.68;44.84;99651.38;5076416;28;45328;-73
2023/01/09 03:48:30;;;;;;;;;0.00;0.00;;;;;21.69;45.14;99649.53;5076603;27;45364;-72
2023/01/09 03:50:56;;;;;;;;;0.00;0.00;;;;;21.66;45.05;99653.41;5058417;28;45393;-72
2023/01/09 03:53:24;;;;;;;;;0.00;0.00;;;;;21.66;44.82;99655.25;5076261;28;46432;-72
2023/01/09 03:55:51;;;;;;;;;1.00;0.00;;;;;21.68;45.15;99659.31;5076451;28;45482;-72
2023/01/09 03:58:17;;;;;;;;;0.00;0.00;;;;;21.68;45.02;99659.31;5076160;28;45937;-72
2023/01/09 04:00:44;;;;;;;;;0.00;0.00;;;;;21.67;44.56;99663.00;5076432;28;45499;-72
2023/01/09 04:03:11;;;;;;;;;0.00;0.00;;;;;21.67;44.63;99652.41;5076194;28;46181;-72
2023/01/09 04:05:37;;;;;;;;;0.00;0.00;;;;;21.66;44.48;99664.00;5076233;28;45432;-72
2023/01/09 04:08:03;;;;;;;;;0.00;0.00;;;;;21.67;44.57;99667.47;5076540;28;45478;-72
2023/01/09 04:10:29;;;;;;;;;0.00;0.00;;;;;21.66;44.79;99665.81;5076469;28;45512;-72
2023/01/09 04:12:55;;;;;;;;;1.00;0.00;;;;;21.65;44.55;99680.88;5075696;28;45274;-72
2023/01/09 04:15:20;;;;;;;;;0.00;0.00;;;;;21.65;45.02;99675.59;5076109;27;45238;-72
2023/01/09 04:17:46;;;;;;;;;1.00;1.00;;;;;21.65;44.91;99678.25;5076376;28;45288;-72
2023/01/09 04:20:11;;;;;;;;;0.00;0.00;;;;;21.65;45.06;99688.03;5076361;28;45177;-72
2023/01/09 04:22:37;;;;;;;;;0.00;0.00;;;;;21.57;44.62;99679.28;5076044;28;45865;-72
2023/01/09 04:25:03;;;;;;;;;0.00;0.00;;;;;21.62;44.68;99690.06;5075961;28;45400;-72
2023/01/09 04:27:28;;;;;;;;;0.00;0.00;;;;;21.63;44.53;99701.47;5075956;28;45370;-72
2023/01/09 04:29:53;;;;;;;;;0.00;0.00;;;;;21.62;44.47;99719.16;5076062;28;45379;-72
2023/01/09 04:32:19;;;;;;;;;0.00;0.00;;;;;21.56;44.58;99701.47;5076003;28;46257;-72
2023/01/09 04:34:44;;;;;;;;;0.00;0.00;;;;;21.63;44.55;99728.75;5075894;28;45335;-72
2023/01/09 04:37:09;;;;;;;;;1.00;0.00;;;;;21.63;44.63;99723.47;5075868;28;45312;-72
2023/01/09 04:39:36;;;;;;;;;0.00;0.00;;;;;21.57;44.62;99734.84;5075988;28;45384;-72
2023/01/09 04:42:01;;;;;;;;;1.00;0.00;;;;;21.55;44.64;99730.78;5075684;28;47099;-72
2023/01/09 04:44:27;;;;;;;;;0.00;0.00;;;;;21.63;44.60;99744.63;5074439;28;45704;-72
2023/01/09 04:46:54;;;;;;;;;0.00;0.00;;;;;21.63;44.76;99752.56;5076243;28;45521;-72
2023/01/09 04:49:20;;;;;;;;;0.00;0.00;;;;;21.62;44.98;99758.09;5075785;27;45538;-72
2023/01/09 04:51:46;;;;;;;;;0.00;0.00;;;;;21.57;44.85;99752.59;5075638;28;45435;-72
2023/01/09 04:54:11;;;;;;;;;1.00;0.00;;;;;21.60;44.68;99758.28;5079071;27;45379;-72
2023/01/09 04:56:37;;;;;;;;;0.00;0.00;;;;;21.64;44.91;99763.97;5078886;27;45345;-72
2023/01/09 04:59:04;;;;;;;;;0.00;0.00;;;;;21.65;44.63;99759.50;5079376;28;45310;-72
2023/01/09 05:01:30;;;;;;;;;0.00;0.00;;;;;21.66;44.59;99766.41;5079241;28;45405;-72
2023/01/09 05:03:55;;;;;;;;;0.00;0.00;;;;;21.66;45.00;99758.47;5079082;28;45426;-72
2023/01/09 05:06:21;;;;;;;;;0.00;0.00;;;;;21.67;44.61;99770.69;5060882;28;45410;-72
2023/01/09 05:08:46;;;;;;;;;0.00;0.00;;;;;21.66;45.06;99763.75;5078857;27;45309;-71
2023/01/09 05:11:12;;;;;;;;;0.33;0.00;;;;;21.63;44.99;99765.00;5079087;28;46150;-72
2023/01/09 05:13:37;;;;;;;;;0.00;0.00;;;;;21.67;44.40;99765.41;5078913;28;45407;-72
2023/01/09 05:16:02;;;;;;;;;0.00;0.00;;;;;21.67;44.85;99781.28;5079125;27;45268;-72
2023/01/09 05:18:27;;;;;;;;;0.00;0.00;;;;;21.67;44.88;99773.34;5078968;28;45543;-72
2023/01/09 05:20:53;;;;;;;;;0.00;0.00;;;;;21.67;44.48;99773.34;5078900;28;46098;-72
2023/01/09 05:23:18;;;;;;;;;0.00;0.00;;;;;21.64;44.33;99774.56;5078419;27;45305;-72
2023/01/09 05:25:43;;;;;;;;;0.00;0.00;;;;;21.67;44.53;99770.69;5078990;27;45280;-72
2023/01/09 05:28:09;;;;;;;;;0.67;0.00;;;;;21.59;44.75;99761.94;5078909;28;45276;-72
2023/01/09 05:30:34;;;;;;;;;0.00;0.00;;;;;21.66;44.36;99769.06;5078612;28;47228;-72
2023/01/09 05:32:59;;;;;;;;;0.00;0.00;;;;;21.65;44.63;99765.59;5078751;27;45306;-72
2023/01/09 05:35:25;;;;;;;;;0.00;0.00;;;;;21.62;44.43;99766.81;5078538;28;45455;-72
2023/01/09 05:37:50;;;;;;;;;0.00;0.00;;;;;21.64;44.44;99774.56;5078271;28;45197;-72
2023/01/09 05:40:16;;;;;;;;;1.00;1.00;;;;;21.64;44.40;99777.22;5078365;28;45330;-72
2023/01/09 05:42:42;;;;;;;;;0.00;0.00;;;;;21.63;44.80;99794.09;5078388;28;45312;-72
2023/01/09 05:45:08;;;;;;;;;0.00;0.00;;;;;21.62;44.62;99781.91;5078544;27;45243;-72
2023/01/09 05:47:34;;;;;;;;;0.00;0.00;;;;;21.53;44.64;99775.97;5078354;28;45532;-72
2023/01/09 05:50:00;;;;;;;;;1.00;0.00;;;;;21.61;44.45;99804.91;5078014;27;46948;-71
2023/01/09 05:52:25;;;;;;;;;0.00;0.00;;;;;21.60;44.59;99805.91;5076817;28;45555;-72
2023/01/09 05:54:50;;;;;;;;;0.00;0.00;;;;;21.61;45.03;99807.56;5078138;28;45434;-71
2023/01/09 05:57:16;;;;;;;;;0.00;0.00;;;;;21.61;44.59;99823.44;5077556;28;45328;-72
2023/01/09 05:59:42;;;;;;;;;0.67;0.33;;;;;21.62;45.17;99816.31;5077857;28;45450;-72
2023/01/09 06:02:07;;;;;;;;;0.00;0.00;;;;;21.62;44.84;99819.75;5077790;27;45508;-72
2023/01/09 06:04:33;;;;;;;;;0.00;0.00;;;;;21.62;45.30;99808.38;5077312;28;45411;-72
2023/01/09 06:06:58;;;;;;;;;0.00;0.00;;;;;21.62;45.32;99825.06;5077904;27;45316;-75
2023/01/09 06:09:23;;;;;;;;;0.00;0.00;;;;;21.61;45.53;99831.38;5076721;28;47210;-73
2023/01/09 06:11:49;;;;;;;;;0.00;0.00;;;;;21.62;45.51;99834.84;5077645;28;45449;-75
2023/01/09 06:14:14;;;;;;;;;0.00;0.00;;;;;21.63;45.13;99850.50;5077825;28;45313;-73
2023/01/09 06:16:40;;;;;;;;;0.00;0.00;;;;;21.63;45.15;99852.34;5076843;27;45340;-71
2023/01/09 06:19:05;;;;;;;;;0.00;0.00;;;;;21.64;45.08;99853.97;5068511;28;46371;-71
2023/01/09 06:21:31;;;;;;;;;0.00;0.00;;;;;21.65;45.15;99862.75;5057233;28;45279;-71
2023/01/09 06:23:57;;;;;;;;;0.00;0.00;;;;;21.66;45.32;99853.78;5057567;28;45405;-73
2023/01/09 06:26:24;;;;;;;;;0.00;0.00;;;;;21.65;44.87;99845.00;5057446;28;45302;-73
2023/01/09 06:28:50;;;;;;;;;0.00;0.00;;;;;21.66;44.71;99849.28;5057452;28;45407;-73
2023/01/09 06:31:15;;;;;;;;;1.67;0.00;;;;;21.67;45.16;99853.59;5057347;28;45326;-72
2023/01/09 06:33:40;;;;;;;;;0.00;0.00;;;;;21.67;45.33;99853.59;5057619;28;45372;-73
2023/01/09 06:36:06;;;;;;;;;0.33;0.00;;;;;21.67;45.19;99853.59;5039225;28;45439;-73
2023/01/09 06:38:32;;;;;;;;;0.00;0.00;;;;;21.68;44.87;99860.50;5056635;28;46166;-73
2023/01/09 06:40:57;;;;;;;;;0.00;0.00;;;;;21.68;44.89;99875.56;5057252;28;45313;-73
2023/01/09 06:43:22;;;;;;;;;0.00;0.00;;;;;21.66;44.75;99870.47;5057603;28;45406;-73
2023/01/09 06:45:48;;;;;;;;;0.00;0.00;;;;;21.68;44.84;99873.72;5057270;28;45414;-73
2023/01/09 06:48:13;;;;;;;;;0.67;0.00;;;;;21.68;45.10;99879.03;5057154;28;46159;-73
2023/01/09 06:50:38;;;;;;;;;0.00;0.00;;;;;21.68;44.84;99889.63;5075567;27;45686;-73
2023/01/09 06:53:04;;;;;;;;;0.00;0.00;;;;;21.68;44.70;99881.66;5077441;28;45361;-73
2023/01/09 06:55:29;;;;;;;;;0.00;0.00;;;;;21.68;44.76;99886.16;5077433;28;45397;-73
2023/01/09 06:57:54;;;;;;;;;0.00;0.00;;;;;21.61;44.69;99894.91;5077164;27;46988;-73
2023/01/09 07:00:20;;;;;;;;;0.00;0.00;;;;;21.57;44.80;99893.66;5077345;28;45259;-73
2023/01/09 07:02:45;;;;;;;;;0.00;0.00;;;;;21.65;44.76;99913.84;5077026;27;45261;-73
2023/01/09 07:05:11;;;;;;;;;0.00;0.00;;;;;21.67;44.65;99921.59;5077072;28;45191;-74
2023/01/09 07:07:40;;;;;;;;;0.00;0.00;;;;;21.67;44.67;99933.00;5077243;28;46299;-75
2023/01/09 07:10:07;;;;;;;;;0.00;0.00;;;;;21.59;44.99;99935.81;5077203;28;45367;-74
2023/01/09 07:12:32;;;;;;;;;0.00;0.00;;;;;21.63;45.01;99958.22;5070318;28;45437;-72
2023/01/09 07:14:58;;;;;;;;;1.33;0.00;;;;;21.66;44.57;99978.19;5059236;28;45347;-73
2023/01/09 07:17:23;;;;;;;;;0.00;0.00;;;;;21.66;44.62;99991.44;5056630;28;45318;-72
2023/01/09 07:19:48;;;;;;;;;0.00;0.00;;;;;21.65;44.83;100011.78;5056261;28;45282;-72
2023/01/09 07:22:14;;;;;;;;;0.00;0.00;;;;;21.61;44.78;100006.09;5070615;28;45376;-72
2023/01/09 07:24:39;;;;;;;;;0.00;0.00;;;;;21.65;45.19;100008.34;5075739;28;45328;-72
2023/01/09 07:27:05;;;;;;;;;1.00;0.00;;;;;21.65;45.10;100018.94;5074424;28;46375;-72
2023/01/09 07:29:30;;;;;;;;;1.67;0.00;;;;;21.63;44.95;100016.47;5076210;28;45399;-72
2023/01/09 07:31:55;;;;;;;;;0.67;0.00;;;;;21.59;45.18;100017.88;5076832;28;45429;-72
2023/01/09 07:34:21;;;;;;;;;0.00;0.00;;;;;21.62;45.17;100026.22;5076589;28;45411;-72
2023/01/09 07:36:47;;;;;;;;;0.00;0.00;;;;;21.63;44.63;100022.59;5076585;28;45376;-72
2023/01/09 07:39:13;;;;;;;;;0.00;0.00;;;;;21.62;44.74;100017.50;5076545;28;45254;-72
2023/01/09 07:41:38;;;;;;;;;0.00;0.00;;;;;21.62;44.72;100018.28;5076662;28;45330;-72
2023/01/09 07:44:03;;;;;;;;;0.00;0.00;;;;;21.62;45.15;100009.56;5076704;28;45315;-72
2023/01/09 07:46:29;;;;;;;;;1.00;0.00;;;;;21.56;45.01;99999.75;5076551;28;45423;-72
2023/01/09 07:48:54;;;;;;;;;0.67;0.00;;;;;21.57;45.15;100015.41;5076079;27;45389;-72
2023/01/09 07:51:20;;;;;;;;;0.00;0.00;;;;;21.62;45.17;100023.56;5076700;28;45498;-72
2023/01/09 07:53:45;;;;;;;;;0.00;0.00;;;;;21.62;44.72;100034.16;5076628;27;45458;-73
2023/01/09 07:56:11;;;;;;;;;0.67;0.00;;;;;21.62;45.17;100049.25;5075977;28;46901;-72
2023/01/09 07:58:37;;;;;;;;;0.00;0.00;;;;;21.61;44.86;100056.38;5076554;28;45301;-72
2023/01/09 08:01:02;;;;;;;;;0.00;0.00;;;;;21.62;44.96;100049.25;5076691;28;45426;-72
2023/01/09 08:03:27;;;;;;;;;0.00;0.00;;;;;21.62;44.88;100060.63;5075817;27;45582;-72
2023/01/09 08:05:53;;;;;;;;;0.00;0.00;;;;;21.61;45.08;100066.97;5076209;27;47977;-72
2023/01/09 08:08:18;;;;;;;;;0.00;0.00;;;;;21.61;45.20;100068.78;5076223;28;45305;-72
2023/01/09 08:10:43;;;;;;;;;0.00;0.00;;;;;21.61;44.89;100082.84;5076293;28;45373;-72
2023/01/09 08:13:09;;;;;;;;;0.00;0.00;;;;;21.63;44.59;100087.94;5076383;28;45317;-72
2023/01/09 08:15:34;;;;;;;;;0.00;0.00;;;;;21.63;45.08;100095.88;5076035;28;45455;-72
2023/01/09 08:17:59;;;;;;;;;0.00;0.00;;;;;21.63;44.74;100093.22;5074934;28;45353;-72
2023/01/09 08:20:26;;;;;;;;;0.00;0.00;;;;;21.62;45.07;100100.34;5076144;28;45280;-70
2023/01/09 08:22:53;;;;;;;;;0.00;0.00;;;;;21.64;45.10;100121.34;5075265;27;45259;-72
2023/01/09 08:25:18;;;;;;;;;0.00;0.00;;;;;21.65;45.11;100160.03;5076188;28;47219;-72
2023/01/09 08:27:44;;;;;;;;;0.00;0.00;;;;;21.65;44.79;100165.31;5074742;28;45534;-72
2023/01/09 08:30:10;;;;;;;;;0.00;0.00;;;;;21.65;44.64;100159.25;5076295;28;45376;-72
2023/01/09 08:32:36;;;;;;;;;0.00;0.00;;;;;21.59;45.09;100134.34;5075769;27;45328;-72
2023/01/09 08:35:02;;;;;;;;;0.00;0.00;;;;;21.63;44.98;100133.75;5075618;28;45940;-71
2023/01/09 08:37:27;;;;;;;;;0.00;0.00;;;;;21.63;45.07;100120.53;5075989;28;45727;-72
2023/01/09 08:39:53;;;;;;;;;0.00;0.00;;;;;21.63;44.61;100117.06;5075843;28;45486;-72
2023/01/09 08:47:47;;;;;;;;;0.00;0.00;;;;;21.62;45.06;100113.59;5075458;28;45372;-72
2023/01/09 08:50:13;;;;;;;;;0.00;0.00;;;;;21.62;44.59;100118.09;5075682;27;45368;-72
2023/01/09 08:52:38;;;;;;;;;0.00;0.00;;;;;21.61;44.60;100133.16;5075914;28;45302;-72
2023/01/09 08:55:04;;;;;;;;;0.00;0.00;;;;;21.61;44.56;100146.38;5057166;28;47286;-72
2023/01/09 08:57:29;;;;;;;;;0.00;0.00;;;;;21.61;44.65;100169.38;5075725;28;45347;-71
2023/01/09 08:59:55;;;;;;;;;0.00;0.00;;;;;21.60;44.92;100151.84;5075607;28;45341;-72
2023/01/09 09:02:20;;;;;;;;;0.00;0.00;;;;;21.60;44.99;100157.16;5075097;28;45409;-72
2023/01/09 09:04:46;;;;;;;;;0.00;0.00;;;;;21.54;44.97;100157.94;5075460;28;45974;-72
2023/01/09 09:07:13;;;;;;;;;0.00;0.00;;;;;21.49;44.77;100161.97;5075513;28;45298;-70
2023/01/09 09:09:38;;;;;;;;;0.00;0.00;;;;;21.58;44.51;100186.47;5075678;28;45339;-73
2023/01/09 09:12:04;;;;;;;;;1.00;0.00;;;;;21.59;44.59;100208.47;5075524;28;45560;-72
2023/01/09 09:17:13;;;;;;;;;1.00;0.00;;;;;21.58;44.55;100204.19;5059647;28;45341;-72
2023/01/09 09:19:40;;;;;;;;;0.00;0.00;;;;;21.57;44.60;100215.78;5075601;28;45648;-71
2023/01/09 09:22:05;;;;;;;;;1.00;0.00;;;;;21.57;44.48;100219.22;5075458;28;45394;-72
2023/01/09 09:24:30;;;;;;;;;0.00;0.00;;;;;21.57;44.71;100235.13;5075216;28;46419;-70
2023/01/09 09:26:56;;;;;;;;;0.00;0.00;;;;;21.58;44.62;100235.94;5074725;28;45397;-71
2023/01/09 09:29:21;;;;;;;;;0.00;0.00;;;;;21.58;44.49;100225.34;5075429;28;45418;-71
2023/01/09 09:31:46;;;;;;;;;0.00;0.00;;;;;21.58;44.69;100225.34;5075139;28;45406;-72
2023/01/09 09:34:12;;;;;;;;;0.00;0.00;;;;;21.53;44.51;100218.00;5075375;28;47024;-72
2023/01/09 09:36:37;;;;;;;;;0.00;0.00;;;;;21.57;44.99;100229.03;5075338;27;45469;-70
2023/01/09 09:39:02;;;;;;;;;0.00;0.00;;;;;21.57;44.57;100237.75;5075475;28;45325;-72
2023/01/09 09:45:02;;;;;;;;;0.00;0.00;;;;;21.58;44.49;100262.41;5078003;28;45643;-72
2023/01/09 09:47:45;;;;;;;;;0.00;0.00;;;;;21.59;44.47;100280.78;5078438;27;45500;-71
2023/01/09 09:50:32;;;;;;;;;0.33;0.00;;;;;21.59;44.53;100270.19;5078320;27;45352;-71
2023/01/09 09:53:28;;;;;;;;;0.00;0.00;;;;;21.54;44.95;100269.94;5078497;27;45427;-73
2023/01/09 09:55:53;;;;;;;;;0.33;0.00;;;;;21.57;44.84;100284.63;5077837;28;47095;-72
2023/01/09 09:58:44;;;;;;;;;0.00;0.00;;;;;21.59;44.54;100283.41;5078166;27;45338;-72
2023/01/09 10:01:17;;;;;;;;;0.00;0.00;;;;;21.51;44.69;100268.50;5078101;28;45581;-71
2023/01/09 10:03:54;;;;;;;;;0.00;0.00;;;;;21.59;44.74;100280.78;5078079;27;45323;-72
2023/01/09 10:06:29;;;;;;;;;0.00;0.00;;;;;21.60;44.94;100286.84;5078150;28;45384;-72
2023/01/09 10:09:14;;;;;;;;;0.00;0.00;;;;;21.60;44.29;100286.84;5077977;28;45388;-71
2023/01/09 10:11:53;;;;;;;;;0.00;0.00;;;;;21.60;44.42;100284.22;5078192;28;45357;-72
2023/01/09 10:14:19;;;;;;;;;1.00;0.00;;;;;21.59;44.35;100280.78;5077680;28;45419;-71
2023/01/09 10:17:17;;;;;;;;;0.67;0.00;;;;;21.59;44.51;100285.25;5077627;28;47292;-72
2023/01/09 10:20:30;;;;;;;;;0.00;0.00;;;;;21.57;44.87;100280.13;5077967;28;45308;-72
2023/01/09 10:23:10;;;;;;;;;0.00;0.00;;;;;21.57;44.34;100284.63;5078181;28;45362;-72
2023/01/09 10:26:04;;;;;;;;;0.00;0.00;;;;;21.57;44.87;100295.22;5077876;28;45333;-72
2023/01/09 10:28:54;;;;;;;;;0.00;0.00;;;;;21.58;44.75;100291.53;5066615;27;47411;-72
2023/01/09 10:31:48;;;;;;;;;0.00;0.00;;;;;21.58;44.37;100297.66;5077717;27;45319;-72
2023/01/09 10:34:25;;;;;;;;;0.00;0.00;;;;;21.57;44.42;100290.72;5078017;28;45369;-72
2023/01/09 10:37:11;;;;;;;;;1.00;0.00;;;;;21.57;44.85;100293.34;5077606;28;45595;-72
2023/01/09 10:39:56;;;;;;;;;0.00;0.00;;;;;21.57;44.39;100287.25;5077496;28;46269;-72
2023/01/09 10:42:32;;;;;;;;;0.00;0.00;;;;;21.57;44.73;100287.25;5077206;28;45218;-72
2023/01/09 10:45:00;;;;;;;;;3.00;0.00;;;;;21.57;44.62;100287.25;5077634;28;45465;-72
2023/01/09 10:47:33;;;;;;;;;0.00;0.00;;;;;21.56;44.87;100282.97;5077591;28;45427;-72
2023/01/09 10:50:01;;;;;;;;;0.00;0.00;;;;;21.57;44.38;100281.97;5076493;27;46536;-71
2023/01/09 10:52:35;;;;;;;;;0.00;0.00;;;;;21.56;44.35;100275.84;5077489;28;45428;-72
2023/01/09 10:55:13;;;;;;;;;0.00;0.00;;;;;21.57;44.31;100284.63;5077410;28;45305;-72
2023/01/09 10:57:44;;;;;;;;;0.00;0.00;;;;;21.57;44.48;100289.91;5077107;28;45524;-71
2023/01/09 11:00:21;;;;;;;;;0.00;0.00;;;;;21.51;44.83;100284.38;5077067;28;47030;-72
2023/01/09 11:02:47;;;;;;;;;0.00;0.00;;;;;21.56;44.86;100293.56;5077053;28;45416;-72
2023/01/09 11:05:22;;;;;;;;;0.00;0.00;;;;;21.56;44.53;100309.44;5077285;28;45748;-72
2023/01/09 11:07:54;;;;;;;;;0.33;0.00;;;;;21.56;44.73;100314.72;5077327;28;45354;-72
2023/01/09 11:10:19;;;;;;;;;0.00;0.00;;;;;21.48;44.67;100310.38;5076323;28;45427;-72
2023/01/09 11:12:45;;;;;;;;;0.00;0.00;;;;;21.56;44.52;100328.78;5076752;27;45295;-73
2023/01/09 11:15:19;;;;;;;;;0.00;0.00;;;;;21.56;44.88;100334.09;5077125;27;45347;-72
2023/01/09 11:17:50;;;;;;;;;0.00;0.00;;;;;21.49;44.83;100315.47;5077121;28;45331;-72
2023/01/09 11:20:21;;;;;;;;;0.00;0.00;;;;;21.57;44.66;100316.38;5076938;27;46238;-72
2023/01/09 11:22:49;;;;;;;;;0.67;0.00;;;;;21.58;44.47;100318.00;5077005;27;45342;-71
2023/01/09 11:25:17;;;;;;;;;0.00;0.00;;;;;21.57;44.46;100314.53;5077167;28;45570;-72
2023/01/09 11:27:42;;;;;;;;;0.00;0.00;;;;;21.59;44.50;100327.59;5076004;28;45364;-71
2023/01/09 11:30:22;;;;;;;;;0.00;0.00;;;;;21.58;44.85;100321.47;5076747;27;46092;-72
2023/01/09 11:32:48;;;;;;;;;0.00;0.00;;;;;21.51;44.49;100318.78;5076990;28;45651;-72
2023/01/09 11:35:30;;;;;;;;;0.00;0.00;;;;;21.60;44.42;100335.34;5076674;28;45371;-72
2023/01/09 11:38:06;;;;;;;;;0.00;0.00;;;;;21.54;44.44;100336.09;5077004;28;45455;-72
2023/01/09 11:40:58;;;;;;;;;0.00;0.00;;;;;21.61;44.60;100344.94;5076072;27;45676;-72
2023/01/09 11:43:29;;;;;;;;;1.00;0.00;;;;;21.60;44.58;100348.56;5058703;28;45304;-72
2023/01/09 11:45:57;;;;;;;;;0.00;0.00;;;;;21.60;44.43;100364.44;5076668;28;45463;-73
2023/01/09 11:48:31;;;;;;;;;0.00;0.00;;;;;21.60;44.31;100374.22;5076488;28;45261;-72
2023/01/09 11:50:59;;;;;;;;;0.67;0.00;;;;;21.60;44.61;100371.56;5076383;28;46188;-72
2023/01/09 11:53:25;;;;;;;;;0.00;0.00;;;;;21.60;44.64;100360.97;5076279;28;45367;-72